Time;durP1;ratioP1;P1;durP2;ratioP2;P2;SDS_P1;SDS_P2;PMS_P1;PMS_P2;Temp;Humidity;BMP_temperature;BMP_pressure;BME280_temperature;BME280_humidity;BME280_pressure;Samples;Min_cycle;Max_cycle;Signal;HPM_P1;HPM_P2
2022/02/16 00:00:55;;;;;;;1.00;0.70;;;9.50;99.90;;;;;;5076993;28;20441;-72
2022/02/16 00:03:22;;;;;;;0.83;0.50;;;9.50;99.90;;;;;;5077020;28;20956;-72
2022/02/16 00:05:49;;;;;;;3.07;0.90;;;9.50;99.90;;;;;;5077807;28;20846;-72
2022/02/16 00:08:15;;;;;;;2.07;0.50;;;9.60;99.90;;;;;;5077151;28;20464;-72
2022/02/16 00:10:42;;;;;;;2.83;0.70;;;9.50;99.90;;;;;;5076808;28;20457;-72
2022/02/16 00:13:09;;;;;;;4.30;1.00;;;9.60;99.90;;;;;;5076553;28;20453;-72
2022/02/16 00:15:35;;;;;;;2.30;0.67;;;9.60;99.90;;;;;;5075923;28;20463;-71
2022/02/16 00:18:06;;;;;;;0.73;0.60;;;9.60;99.90;;;;;;5076329;28;20440;-71
2022/02/16 00:20:33;;;;;;;0.97;0.63;;;9.60;99.90;;;;;;5076283;28;20433;-72
2022/02/16 00:23:00;;;;;;;2.03;0.53;;;9.60;99.90;;;;;;5076162;28;20448;-72
2022/02/16 00:25:26;;;;;;;2.10;0.70;;;9.60;99.90;;;;;;5075789;28;20484;-71
2022/02/16 00:27:53;;;;;;;0.67;0.60;;;9.60;99.90;;;;;;5075723;28;20452;-72
2022/02/16 00:30:20;;;;;;;1.30;0.90;;;9.60;99.90;;;;;;5075965;28;20449;-72
2022/02/16 00:32:47;;;;;;;0.73;0.50;;;9.60;99.90;;;;;;5075940;28;20792;-72
2022/02/16 00:35:15;;;;;;;0.60;0.60;;;9.60;99.90;;;;;;5075845;28;20448;-71
2022/02/16 00:37:42;;;;;;;2.00;0.77;;;9.60;99.90;;;;;;5075860;28;20449;-72
2022/02/16 00:40:10;;;;;;;0.70;0.70;;;9.70;99.90;;;;;;5075546;28;20934;-72
2022/02/16 00:42:37;;;;;;;1.33;0.67;;;9.70;99.90;;;;;;5075800;28;20444;-72
2022/02/16 00:45:05;;;;;;;1.23;0.80;;;9.70;99.90;;;;;;5075403;28;21003;-72
2022/02/16 00:47:32;;;;;;;0.73;0.57;;;9.70;99.90;;;;;;5075390;28;20506;-72
2022/02/16 00:49:59;;;;;;;1.03;0.50;;;9.70;99.90;;;;;;5075843;28;20498;-72
2022/02/16 00:52:27;;;;;;;0.80;0.60;;;9.70;99.90;;;;;;5075636;28;20472;-72
2022/02/16 00:54:54;;;;;;;1.53;0.50;;;9.70;99.90;;;;;;5075661;28;20437;-72
2022/02/16 00:57:20;;;;;;;0.60;0.53;;;9.70;99.90;;;;;;5075168;28;20479;-71
2022/02/16 00:59:47;;;;;;;0.60;0.60;;;9.70;99.90;;;;;;5074626;28;20449;-71
2022/02/16 01:02:14;;;;;;;0.70;0.70;;;9.80;99.90;;;;;;5074982;28;20841;-72
2022/02/16 01:04:41;;;;;;;0.63;0.63;;;9.80;99.90;;;;;;5075310;28;20476;-72
2022/02/16 01:07:08;;;;;;;1.77;0.63;;;9.80;99.90;;;;;;5074991;28;20491;-72
2022/02/16 01:09:36;;;;;;;0.77;0.63;;;9.80;99.90;;;;;;5075234;28;20456;-72
2022/02/16 01:12:03;;;;;;;2.30;0.90;;;9.80;99.90;;;;;;5075145;28;20443;-72
2022/02/16 01:14:30;;;;;;;2.57;1.30;;;9.80;99.90;;;;;;5075153;28;20440;-72
2022/02/16 01:16:56;;;;;;;1.73;1.00;;;9.80;99.90;;;;;;5074644;28;20813;-72
2022/02/16 01:19:23;;;;;;;1.80;0.70;;;9.80;99.90;;;;;;5075000;28;20490;-72
2022/02/16 01:21:52;;;;;;;2.20;1.27;;;9.80;99.90;;;;;;5074965;28;20441;-72
2022/02/16 01:24:19;;;;;;;1.13;0.90;;;9.90;99.90;;;;;;5074950;28;20536;-72
2022/02/16 01:26:47;;;;;;;1.33;0.60;;;9.90;99.90;;;;;;5074886;28;20465;-71
2022/02/16 01:29:14;;;;;;;0.80;0.70;;;9.80;99.90;;;;;;5074899;28;20448;-72
2022/02/16 01:31:41;;;;;;;1.53;0.90;;;9.80;99.90;;;;;;5074772;28;20449;-72
2022/02/16 01:34:08;;;;;;;1.97;1.17;;;9.90;99.90;;;;;;5074817;28;20452;-72
2022/02/16 01:36:35;;;;;;;1.23;0.87;;;9.90;99.90;;;;;;5074767;28;20577;-72
2022/02/16 01:39:02;;;;;;;0.50;0.40;;;9.90;99.90;;;;;;5075136;28;20444;-72
2022/02/16 01:41:28;;;;;;;0.70;0.70;;;9.90;99.90;;;;;;5075699;28;20448;-72
2022/02/16 01:43:56;;;;;;;1.03;0.67;;;9.90;99.90;;;;;;5076023;28;20514;-72
2022/02/16 01:46:23;;;;;;;0.67;0.50;;;10.00;99.90;;;;;;5074798;28;20488;-72
2022/02/16 01:48:50;;;;;;;0.63;0.63;;;9.90;99.90;;;;;;5074807;28;20441;-72
2022/02/16 01:51:17;;;;;;;1.57;1.00;;;10.00;99.90;;;;;;5074343;28;20451;-72
2022/02/16 01:53:44;;;;;;;2.10;0.70;;;10.00;99.90;;;;;;5074341;28;20445;-72
2022/02/16 01:56:12;;;;;;;0.80;0.63;;;10.00;99.90;;;;;;5074280;28;20473;-71
2022/02/16 01:58:40;;;;;;;1.20;0.67;;;10.00;99.90;;;;;;5074266;28;20449;-72
2022/02/16 02:01:09;;;;;;;0.80;0.63;;;10.00;99.90;;;;;;5074258;28;20453;-72
2022/02/16 02:03:36;;;;;;;0.60;0.60;;;9.90;99.90;;;;;;5074192;28;20453;-72
2022/02/16 02:06:02;;;;;;;0.67;0.50;;;10.00;99.90;;;;;;5073931;28;20491;-72
2022/02/16 02:08:29;;;;;;;2.40;0.67;;;10.00;99.90;;;;;;5073648;28;20452;-73
2022/02/16 02:10:57;;;;;;;1.40;1.03;;;10.00;99.90;;;;;;5073882;28;20448;-72
2022/02/16 02:13:24;;;;;;;0.93;0.60;;;9.90;99.90;;;;;;5073789;28;20440;-72
2022/02/16 02:15:51;;;;;;;0.93;0.60;;;9.90;99.90;;;;;;5073882;28;20465;-71
2022/02/16 02:18:20;;;;;;;1.37;0.60;;;9.90;99.90;;;;;;5073552;28;20958;-71
2022/02/16 02:20:48;;;;;;;1.33;0.63;;;9.90;99.90;;;;;;5073837;28;20457;-72
2022/02/16 02:23:15;;;;;;;0.90;0.60;;;9.90;99.90;;;;;;5073868;28;20437;-72
2022/02/16 02:25:46;;;;;;;1.70;0.77;;;9.90;99.90;;;;;;5073706;28;20477;-72
2022/02/16 02:28:13;;;;;;;1.33;0.60;;;9.90;99.90;;;;;;5073773;28;20444;-72
2022/02/16 02:30:40;;;;;;;1.33;0.73;;;9.90;99.90;;;;;;5073691;28;20456;-72
2022/02/16 02:33:07;;;;;;;1.57;0.60;;;9.90;99.90;;;;;;5073434;28;20989;-72
2022/02/16 02:35:33;;;;;;;1.30;0.60;;;9.90;99.90;;;;;;5073277;28;20468;-72
2022/02/16 02:38:02;;;;;;;1.50;0.70;;;9.90;99.90;;;;;;5073515;28;20445;-72
2022/02/16 02:40:29;;;;;;;1.67;0.80;;;9.90;99.90;;;;;;5073588;28;20928;-72
2022/02/16 02:42:55;;;;;;;1.70;0.90;;;9.90;99.90;;;;;;5073501;28;20460;-72
2022/02/16 02:45:22;;;;;;;0.70;0.70;;;9.90;99.90;;;;;;5073381;28;20487;-71
2022/02/16 02:47:49;;;;;;;0.90;0.70;;;9.80;99.90;;;;;;5074024;28;20519;-72
2022/02/16 02:50:15;;;;;;;0.60;0.60;;;9.90;99.90;;;;;;5073266;28;20789;-72
2022/02/16 02:52:42;;;;;;;3.60;1.00;;;9.90;99.90;;;;;;5073250;28;20944;-72
2022/02/16 02:55:14;;;;;;;3.13;1.90;;;9.90;99.90;;;;;;5073439;28;20436;-72
2022/02/16 02:57:41;;;;;;;2.77;0.90;;;10.00;99.90;;;;;;5073484;28;20441;-72
2022/02/16 03:00:10;;;;;;;3.60;0.80;;;9.90;99.90;;;;;;5073485;28;20433;-71
2022/02/16 03:02:37;;;;;;;1.80;1.00;;;9.90;99.90;;;;;;5073120;28;20974;-72
2022/02/16 03:05:05;;;;;;;2.33;0.77;;;10.00;99.90;;;;;;5073323;28;20449;-72
2022/02/16 03:07:32;;;;;;;2.20;0.90;;;10.00;99.90;;;;;;5072845;28;20472;-71
2022/02/16 03:09:59;;;;;;;0.73;0.60;;;10.00;99.90;;;;;;5073200;28;20449;-71
2022/02/16 03:12:27;;;;;;;1.87;0.73;;;10.00;99.90;;;;;;5073517;28;20444;-71
2022/02/16 03:14:53;;;;;;;1.53;0.60;;;10.00;99.90;;;;;;5073249;28;20963;-71
2022/02/16 03:17:20;;;;;;;1.03;0.60;;;10.00;99.90;;;;;;5073472;28;20470;-72
2022/02/16 03:19:47;;;;;;;1.37;0.73;;;10.00;99.90;;;;;;5073450;28;20444;-72
2022/02/16 03:22:14;;;;;;;2.83;0.67;;;10.00;99.90;;;;;;5073430;28;20452;-72
2022/02/16 03:24:40;;;;;;;2.03;0.80;;;10.00;99.90;;;;;;5075579;28;20965;-72
2022/02/16 03:27:07;;;;;;;2.87;0.40;;;10.10;99.90;;;;;;5077192;28;20487;-71
2022/02/16 03:29:35;;;;;;;0.60;0.60;;;10.10;99.90;;;;;;5076876;28;20958;-71
2022/02/16 03:32:02;;;;;;;0.60;0.60;;;10.10;99.90;;;;;;5076919;28;20440;-71
2022/02/16 03:34:29;;;;;;;1.17;0.40;;;10.20;99.90;;;;;;5077098;28;20448;-71
2022/02/16 03:36:56;;;;;;;0.80;0.47;;;10.20;99.90;;;;;;5076940;28;20464;-71
2022/02/16 03:39:23;;;;;;;2.73;0.67;;;10.20;99.90;;;;;;5076939;28;20448;-71
2022/02/16 03:41:50;;;;;;;2.00;0.77;;;10.10;99.90;;;;;;5076893;28;20838;-71
2022/02/16 03:44:16;;;;;;;1.37;0.47;;;10.20;99.90;;;;;;5076915;28;20440;-71
2022/02/16 03:46:45;;;;;;;0.70;0.40;;;10.20;99.90;;;;;;5076646;28;20533;-71
2022/02/16 03:49:12;;;;;;;1.70;0.50;;;10.30;99.90;;;;;;5076737;28;20483;-71
2022/02/16 03:51:39;;;;;;;1.20;0.60;;;10.30;99.90;;;;;;5076357;28;20437;-71
2022/02/16 03:54:06;;;;;;;2.90;0.40;;;10.30;99.90;;;;;;5076326;28;20970;-72
2022/02/16 03:56:33;;;;;;;2.90;0.67;;;10.30;99.90;;;;;;5076540;28;20453;-71
2022/02/16 03:59:00;;;;;;;1.70;0.50;;;10.30;99.90;;;;;;5076192;28;20456;-71
2022/02/16 04:01:27;;;;;;;0.90;0.50;;;10.40;99.90;;;;;;5076214;28;20807;-71
2022/02/16 04:03:55;;;;;;;1.73;0.53;;;10.40;99.90;;;;;;5076422;28;20478;-71
2022/02/16 04:06:22;;;;;;;0.60;0.40;;;10.40;99.90;;;;;;5075804;28;20481;-71
2022/02/16 04:08:49;;;;;;;2.07;0.40;;;10.40;99.90;;;;;;5076345;28;20433;-71
2022/02/16 04:11:18;;;;;;;0.53;0.40;;;10.40;99.90;;;;;;5075996;28;20932;-71
2022/02/16 04:13:45;;;;;;;0.40;0.40;;;10.40;99.90;;;;;;5076253;28;20888;-72
2022/02/16 04:16:12;;;;;;;1.67;0.47;;;10.40;99.90;;;;;;5076190;28;20460;-72
2022/02/16 04:18:38;;;;;;;0.50;0.47;;;10.40;99.90;;;;;;5076152;28;20445;-72
2022/02/16 04:21:06;;;;;;;3.60;0.50;;;10.40;99.90;;;;;;5076109;28;20857;-72
2022/02/16 04:23:33;;;;;;;1.53;0.53;;;10.40;99.90;;;;;;5075862;28;20429;-72
2022/02/16 04:26:01;;;;;;;0.60;0.50;;;10.50;99.90;;;;;;5075669;28;21052;-71
2022/02/16 04:28:28;;;;;;;2.57;0.43;;;10.40;99.90;;;;;;5076062;28;20452;-71
2022/02/16 04:30:55;;;;;;;1.70;0.30;;;10.40;99.90;;;;;;5076015;28;20448;-72
2022/02/16 04:33:21;;;;;;;1.90;0.40;;;10.50;99.90;;;;;;5075678;28;20908;-72
2022/02/16 04:35:48;;;;;;;5.97;0.57;;;10.40;99.90;;;;;;5075534;28;20472;-72
2022/02/16 04:38:17;;;;;;;0.60;0.53;;;10.40;99.90;;;;;;5075910;28;20436;-72
2022/02/16 04:40:44;;;;;;;2.43;0.53;;;10.40;99.90;;;;;;5075802;28;20480;-72
2022/02/16 04:43:11;;;;;;;1.17;0.60;;;10.30;99.90;;;;;;5075804;28;20452;-72
2022/02/16 04:45:38;;;;;;;0.63;0.40;;;10.40;99.90;;;;;;5075512;28;20476;-71
2022/02/16 04:48:05;;;;;;;1.37;0.50;;;10.40;99.90;;;;;;5075667;28;20444;-72
2022/02/16 04:50:33;;;;;;;2.73;0.40;;;10.40;99.90;;;;;;5075667;28;20452;-72
2022/02/16 04:53:00;;;;;;;2.63;0.47;;;10.40;99.90;;;;;;5075834;28;20460;-72
2022/02/16 04:55:28;;;;;;;3.43;0.70;;;10.40;99.90;;;;;;5075462;28;20447;-72
2022/02/16 04:57:55;;;;;;;4.67;0.50;;;10.40;99.90;;;;;;5075068;28;20959;-72
2022/02/16 05:00:23;;;;;;;1.27;0.40;;;10.40;99.90;;;;;;5075177;28;20433;-72
2022/02/16 05:02:50;;;;;;;1.97;0.50;;;10.40;99.90;;;;;;5075019;28;20935;-72
2022/02/16 05:05:17;;;;;;;1.47;0.50;;;10.50;99.90;;;;;;5075267;28;20460;-71
2022/02/16 05:07:44;;;;;;;3.73;0.50;;;10.50;99.90;;;;;;5074982;28;20488;-72
2022/02/16 05:10:11;;;;;;;0.50;0.50;;;10.40;99.90;;;;;;5075224;28;20433;-71
2022/02/16 05:12:40;;;;;;;0.97;0.50;;;10.40;99.90;;;;;;5075189;28;20456;-72
2022/02/16 05:15:08;;;;;;;3.90;1.53;;;10.40;99.90;;;;;;5075965;28;20455;-72
2022/02/16 05:17:35;;;;;;;0.40;0.33;;;10.40;99.90;;;;;;5075067;28;20467;-72
2022/02/16 05:20:02;;;;;;;1.10;0.40;;;10.40;99.90;;;;;;5075138;28;20432;-71
2022/02/16 05:22:28;;;;;;;0.77;0.50;;;10.50;99.90;;;;;;5074970;28;20785;-72
2022/02/16 05:24:55;;;;;;;1.27;0.50;;;10.50;99.90;;;;;;5074951;28;20893;-72
2022/02/16 05:27:22;;;;;;;0.40;0.40;;;10.60;99.90;;;;;;5074386;28;21037;-71
2022/02/16 05:29:50;;;;;;;0.40;0.40;;;10.60;99.90;;;;;;5074609;28;20453;-71
2022/02/16 05:32:17;;;;;;;0.40;0.40;;;10.60;99.90;;;;;;5074547;28;20955;-71
2022/02/16 05:34:43;;;;;;;0.80;0.50;;;10.60;99.90;;;;;;5074708;28;20445;-71
2022/02/16 05:37:10;;;;;;;0.60;0.50;;;10.60;99.90;;;;;;5074576;28;20866;-71
2022/02/16 05:39:37;;;;;;;0.57;0.57;;;10.60;99.90;;;;;;5074665;28;20451;-71
2022/02/16 05:42:04;;;;;;;0.67;0.67;;;10.60;99.90;;;;;;5074316;28;21039;-71
2022/02/16 05:44:31;;;;;;;1.20;0.30;;;10.60;99.90;;;;;;5074186;28;20954;-71
2022/02/16 05:46:59;;;;;;;0.90;0.40;;;10.60;99.90;;;;;;5073645;28;20476;-71
2022/02/16 05:49:26;;;;;;;0.73;0.73;;;10.60;99.90;;;;;;5074418;28;20829;-71
2022/02/16 05:51:53;;;;;;;0.50;0.30;;;10.60;99.90;;;;;;5074425;28;20839;-72
2022/02/16 05:54:19;;;;;;;0.47;0.40;;;10.70;99.90;;;;;;5074231;28;20449;-72
2022/02/16 05:56:46;;;;;;;0.60;0.43;;;10.70;99.90;;;;;;5074186;28;20849;-71
2022/02/16 05:59:13;;;;;;;1.50;0.40;;;10.60;99.90;;;;;;5074185;28;20448;-71
2022/02/16 06:01:40;;;;;;;0.40;0.30;;;10.60;99.90;;;;;;5074194;28;20824;-72
2022/02/16 06:04:08;;;;;;;1.67;0.40;;;10.70;99.90;;;;;;5073789;28;20506;-72
2022/02/16 06:06:35;;;;;;;0.40;0.37;;;10.70;99.90;;;;;;5073775;28;20924;-71
2022/02/16 06:09:02;;;;;;;0.80;0.37;;;10.70;99.90;;;;;;5075260;28;20457;-71
2022/02/16 06:11:29;;;;;;;0.63;0.40;;;10.70;99.90;;;;;;5074782;28;20944;-72
2022/02/16 06:13:56;;;;;;;0.70;0.30;;;10.70;99.90;;;;;;5074137;28;20954;-72
2022/02/16 06:16:23;;;;;;;0.60;0.30;;;10.70;99.90;;;;;;5073892;28;20464;-71
2022/02/16 06:18:50;;;;;;;2.10;0.50;;;10.70;99.90;;;;;;5074001;28;20440;-72
2022/02/16 06:21:18;;;;;;;0.40;0.30;;;10.70;99.90;;;;;;5073850;28;20451;-72
2022/02/16 06:23:45;;;;;;;0.87;0.50;;;10.80;99.90;;;;;;5073880;28;20445;-72
2022/02/16 06:26:12;;;;;;;2.00;0.50;;;10.80;99.90;;;;;;5073348;28;20461;-71
2022/02/16 06:28:39;;;;;;;2.30;1.00;;;10.80;99.90;;;;;;5073815;28;20440;-71
2022/02/16 06:31:07;;;;;;;1.27;0.57;;;10.80;99.90;;;;;;5073390;28;20451;-71
2022/02/16 06:33:34;;;;;;;1.97;0.50;;;10.80;99.90;;;;;;5073615;28;20475;-72
2022/02/16 06:36:00;;;;;;;1.20;0.60;;;10.80;99.90;;;;;;5073618;28;20496;-72
2022/02/16 06:38:29;;;;;;;6.60;0.47;;;10.80;99.90;;;;;;5073558;28;20531;-72
2022/02/16 06:40:55;;;;;;;0.60;0.40;;;10.80;99.90;;;;;;5073573;28;20448;-72
2022/02/16 06:43:22;;;;;;;0.60;0.40;;;10.80;99.90;;;;;;5073524;28;20449;-72
2022/02/16 06:45:49;;;;;;;3.97;0.73;;;10.80;99.90;;;;;;5073230;28;20867;-71
2022/02/16 06:48:15;;;;;;;4.20;0.90;;;10.80;99.90;;;;;;5073451;28;20507;-72
2022/02/16 06:50:43;;;;;;;1.17;0.53;;;10.80;99.90;;;;;;5073791;28;20449;-72
2022/02/16 06:53:10;;;;;;;0.93;0.30;;;10.80;99.90;;;;;;5073573;28;21001;-72
2022/02/16 06:55:38;;;;;;;2.33;0.57;;;10.80;99.90;;;;;;5074029;28;20490;-71
2022/02/16 06:58:05;;;;;;;0.87;0.53;;;10.80;99.90;;;;;;5073666;28;20444;-72
2022/02/16 07:00:32;;;;;;;0.77;0.33;;;10.70;99.90;;;;;;5073305;28;20436;-71
2022/02/16 07:02:58;;;;;;;0.60;0.43;;;10.70;99.90;;;;;;5073423;28;20452;-71
2022/02/16 07:05:25;;;;;;;0.90;0.53;;;10.70;99.90;;;;;;5073276;28;20781;-71
2022/02/16 07:07:52;;;;;;;1.10;0.30;;;10.70;99.90;;;;;;5072960;28;20495;-71
2022/02/16 07:10:19;;;;;;;2.20;0.40;;;10.70;99.90;;;;;;5073393;28;20810;-71
2022/02/16 07:12:47;;;;;;;4.07;0.60;;;10.70;99.90;;;;;;5073336;28;20799;-71
2022/02/16 07:15:14;;;;;;;6.37;0.80;;;10.70;99.90;;;;;;5072914;28;20931;-70
2022/02/16 07:17:40;;;;;;;1.17;0.30;;;10.80;99.90;;;;;;5073257;28;20440;-71
2022/02/16 07:20:10;;;;;;;2.30;0.50;;;10.80;99.90;;;;;;5072972;28;20928;-71
2022/02/16 07:22:41;;;;;;;1.73;0.40;;;10.90;99.90;;;;;;5073169;28;20452;-71
2022/02/16 07:25:08;;;;;;;1.20;0.50;;;10.80;99.90;;;;;;5072866;28;20444;-71
2022/02/16 07:27:35;;;;;;;1.83;0.50;;;10.80;99.90;;;;;;5072744;28;21018;-72
2022/02/16 07:30:05;;;;;;;0.77;0.53;;;10.80;99.90;;;;;;5072898;28;20810;-72
2022/02/16 07:32:32;;;;;;;1.47;0.37;;;10.90;99.90;;;;;;5073185;28;20429;-72
2022/02/16 07:34:59;;;;;;;0.90;0.40;;;10.90;99.90;;;;;;5073090;28;20456;-72
2022/02/16 07:37:26;;;;;;;0.50;0.30;;;11.00;99.90;;;;;;5073017;28;20461;-71
2022/02/16 07:39:52;;;;;;;1.30;0.40;;;11.00;99.90;;;;;;5073039;28;20448;-72
2022/02/16 07:42:19;;;;;;;0.30;0.20;;;10.90;99.90;;;;;;5073057;28;20440;-71
2022/02/16 07:44:46;;;;;;;4.20;0.47;;;10.90;99.90;;;;;;5073009;28;20817;-71
2022/02/16 07:47:14;;;;;;;0.80;0.37;;;11.00;99.90;;;;;;5072537;28;20483;-72
2022/02/16 07:49:40;;;;;;;0.40;0.20;;;11.00;99.90;;;;;;5072953;28;20448;-71
2022/02/16 07:52:07;;;;;;;4.00;0.40;;;11.00;99.90;;;;;;5072937;28;20447;-71
2022/02/16 07:54:34;;;;;;;1.10;0.37;;;11.10;99.90;;;;;;5072917;28;20456;-71
2022/02/16 07:57:01;;;;;;;0.40;0.40;;;11.10;99.90;;;;;;5072817;28;20464;-71
2022/02/16 07:59:28;;;;;;;0.37;0.30;;;11.10;99.90;;;;;;5072841;28;20440;-72
2022/02/16 08:01:56;;;;;;;0.60;0.40;;;11.10;99.90;;;;;;5072441;28;20944;-71
2022/02/16 08:04:24;;;;;;;0.40;0.30;;;11.20;99.90;;;;;;5072785;28;20476;-71
2022/02/16 08:06:51;;;;;;;0.57;0.30;;;11.20;99.90;;;;;;5072465;28;20492;-71
2022/02/16 08:09:18;;;;;;;0.40;0.40;;;11.20;99.90;;;;;;5072935;28;20453;-71
2022/02/16 08:11:47;;;;;;;1.43;0.40;;;11.20;99.90;;;;;;5076062;28;20962;-72
2022/02/16 08:14:15;;;;;;;0.70;0.40;;;11.20;99.90;;;;;;5076295;28;20498;-72
2022/02/16 08:16:42;;;;;;;0.50;0.30;;;11.20;99.90;;;;;;5076176;28;20862;-71
2022/02/16 08:19:10;;;;;;;0.87;0.40;;;11.20;99.90;;;;;;5076212;28;20448;-71
2022/02/16 08:21:39;;;;;;;1.27;0.40;;;11.20;99.90;;;;;;5076125;28;20445;-71
2022/02/16 08:24:07;;;;;;;0.70;0.40;;;11.20;99.90;;;;;;5076106;28;20870;-71
2022/02/16 08:26:34;;;;;;;0.30;0.20;;;11.10;99.90;;;;;;5075936;28;20555;-71
2022/02/16 08:29:01;;;;;;;0.47;0.30;;;11.20;99.90;;;;;;5076077;28;20448;-71
2022/02/16 08:31:28;;;;;;;0.50;0.40;;;11.10;99.90;;;;;;5075672;28;20966;-71
2022/02/16 08:33:55;;;;;;;1.80;0.30;;;11.10;99.90;;;;;;5075978;28;20495;-72
2022/02/16 08:36:21;;;;;;;0.70;0.30;;;11.10;99.90;;;;;;5075816;28;20479;-71
2022/02/16 08:38:49;;;;;;;0.60;0.40;;;11.10;99.90;;;;;;5075843;28;20448;-71
2022/02/16 08:41:16;;;;;;;0.50;0.47;;;11.20;99.90;;;;;;5075808;28;20532;-71
2022/02/16 08:43:43;;;;;;;0.50;0.30;;;11.20;99.90;;;;;;5075725;28;20799;-72
2022/02/16 08:46:10;;;;;;;0.40;0.33;;;11.20;99.90;;;;;;5075679;28;20471;-71
2022/02/16 08:48:37;;;;;;;0.40;0.40;;;11.30;99.90;;;;;;5075182;28;20477;-71
2022/02/16 08:51:04;;;;;;;0.50;0.40;;;11.30;99.90;;;;;;5075571;28;20445;-71
2022/02/16 08:53:30;;;;;;;0.70;0.40;;;11.30;99.90;;;;;;5075305;28;20939;-71
2022/02/16 08:55:59;;;;;;;0.50;0.40;;;11.40;99.90;;;;;;5075632;28;20468;-71
2022/02/16 08:58:28;;;;;;;4.83;0.30;;;11.40;99.90;;;;;;5075549;28;20448;-71
2022/02/16 09:00:56;;;;;;;0.40;0.30;;;11.40;99.90;;;;;;5075185;28;20447;-71
2022/02/16 09:03:22;;;;;;;0.40;0.30;;;11.40;99.90;;;;;;5075123;28;20483;-71
2022/02/16 09:05:49;;;;;;;2.83;0.77;;;11.40;99.90;;;;;;5074985;28;20467;-71
2022/02/16 09:08:17;;;;;;;0.40;0.30;;;11.50;99.90;;;;;;5074835;28;21018;-70
2022/02/16 09:10:43;;;;;;;0.50;0.40;;;11.50;99.90;;;;;;5075801;28;20445;-71
2022/02/16 09:13:12;;;;;;;3.50;0.40;;;11.40;99.90;;;;;;5074885;28;20936;-71
2022/02/16 09:15:38;;;;;;;0.40;0.30;;;11.50;99.90;;;;;;5075099;28;20473;-71
2022/02/16 09:18:06;;;;;;;1.17;0.53;;;11.50;99.90;;;;;;5075137;28;20440;-71
2022/02/16 09:20:33;;;;;;;0.43;0.40;;;11.40;99.90;;;;;;5074733;28;20448;-71
2022/02/16 09:23:00;;;;;;;0.40;0.40;;;11.40;99.90;;;;;;5074343;28;20820;-71
2022/02/16 09:25:27;;;;;;;0.43;0.43;;;11.40;99.90;;;;;;5074885;28;20536;-71
2022/02/16 09:27:54;;;;;;;0.60;0.40;;;11.40;99.90;;;;;;5074886;28;20498;-71
2022/02/16 09:30:22;;;;;;;0.40;0.30;;;11.40;99.90;;;;;;5074848;28;20452;-71
2022/02/16 09:32:49;;;;;;;1.33;0.50;;;11.50;99.90;;;;;;5074769;28;20535;-71
2022/02/16 09:35:16;;;;;;;0.70;0.70;;;11.50;99.90;;;;;;5074378;28;20453;-70
2022/02/16 09:37:44;;;;;;;0.40;0.40;;;11.50;99.90;;;;;;5074380;28;20936;-71
2022/02/16 09:40:11;;;;;;;1.00;0.50;;;11.50;99.90;;;;;;5074452;28;20970;-71
2022/02/16 09:42:38;;;;;;;1.33;0.60;;;11.60;99.90;;;;;;5074531;28;20460;-71
2022/02/16 09:45:06;;;;;;;0.70;0.60;;;11.60;99.90;;;;;;5074583;28;20453;-71
2022/02/16 09:47:35;;;;;;;0.60;0.40;;;11.60;99.90;;;;;;5074368;28;20472;-71
2022/02/16 09:50:04;;;;;;;2.10;0.60;;;11.70;99.90;;;;;;5074499;28;20484;-71
2022/02/16 09:52:31;;;;;;;0.80;0.47;;;11.70;99.90;;;;;;5074430;28;20441;-71
2022/02/16 09:54:58;;;;;;;0.60;0.60;;;11.70;99.90;;;;;;5074413;28;20444;-71
2022/02/16 09:57:25;;;;;;;0.60;0.50;;;11.70;99.90;;;;;;5075081;28;20476;-71
2022/02/16 09:59:52;;;;;;;0.87;0.50;;;11.80;99.90;;;;;;5074006;28;20455;-71
2022/02/16 10:02:19;;;;;;;0.50;0.50;;;11.80;99.90;;;;;;5074255;28;20447;-71
2022/02/16 10:04:58;;;;;;;0.97;0.63;;;11.90;99.90;;;;;;5074204;28;20445;-71
2022/02/16 10:07:26;;;;;;;0.83;0.60;;;11.80;99.90;;;;;;5073604;28;20495;-70
2022/02/16 10:09:53;;;;;;;0.60;0.53;;;11.80;99.90;;;;;;5074101;28;20441;-70
2022/02/16 10:12:21;;;;;;;0.53;0.53;;;11.90;99.90;;;;;;5074033;28;20820;-71
2022/02/16 10:14:52;;;;;;;0.40;0.30;;;11.90;99.90;;;;;;5074014;28;20456;-71
2022/02/16 10:17:22;;;;;;;1.73;0.50;;;12.00;99.90;;;;;;5074518;28;20468;-71
2022/02/16 10:19:52;;;;;;;0.50;0.40;;;12.10;99.90;;;;;;5073929;28;20523;-71
2022/02/16 10:22:21;;;;;;;4.00;0.67;;;12.10;99.90;;;;;;5073615;28;20958;-71
2022/02/16 10:24:49;;;;;;;0.50;0.50;;;12.20;99.90;;;;;;5073954;28;20449;-71
2022/02/16 10:27:17;;;;;;;2.83;0.73;;;12.30;99.90;;;;;;5073825;28;20500;-71
2022/02/16 10:29:45;;;;;;;1.33;0.50;;;12.30;99.90;;;;;;5073855;28;20456;-72
2022/02/16 10:32:27;;;;;;;1.90;0.50;;;12.30;99.90;;;;;;5073641;28;20452;-71
2022/02/16 10:34:56;;;;;;;0.60;0.60;;;12.30;99.90;;;;;;5073955;28;20443;-72
2022/02/16 10:37:31;;;;;;;1.80;0.60;;;12.30;99.90;;;;;;5073607;28;20464;-71
2022/02/16 10:40:14;;;;;;;3.23;0.50;;;12.30;99.90;;;;;;5073448;28;20438;-71
2022/02/16 10:42:56;;;;;;;0.87;0.87;;;12.30;99.90;;;;;;5073368;28;20896;-71
2022/02/16 10:45:25;;;;;;;0.90;0.70;;;12.20;99.90;;;;;;5073276;28;20432;-71
2022/02/16 10:48:02;;;;;;;0.60;0.60;;;12.30;99.90;;;;;;5073514;28;20484;-71
2022/02/16 10:50:31;;;;;;;0.83;0.80;;;12.30;99.90;;;;;;5073630;28;20432;-71
2022/02/16 10:53:01;;;;;;;2.87;0.70;;;12.30;99.90;;;;;;5073202;28;20931;-71
2022/02/16 10:55:38;;;;;;;0.80;0.80;;;12.30;99.90;;;;;;5073744;28;20440;-70
2022/02/16 10:58:06;;;;;;;1.03;0.80;;;12.30;99.90;;;;;;5073467;28;20440;-71
2022/02/16 11:00:35;;;;;;;1.00;0.90;;;12.40;99.90;;;;;;5073122;28;20970;-71
2022/02/16 11:03:03;;;;;;;0.80;0.80;;;12.40;99.90;;;;;;5073136;28;20954;-71
2022/02/16 11:05:31;;;;;;;2.73;1.13;;;12.50;99.90;;;;;;5073007;28;20906;-71
2022/02/16 11:08:00;;;;;;;1.33;0.90;;;12.50;99.90;;;;;;5072936;28;20484;-71
2022/02/16 11:10:29;;;;;;;1.20;1.20;;;12.40;99.90;;;;;;5073343;28;20480;-71
2022/02/16 11:12:57;;;;;;;1.57;1.33;;;12.40;99.90;;;;;;5073316;28;20453;-71
2022/02/16 11:15:24;;;;;;;1.30;1.20;;;12.50;99.90;;;;;;5073203;28;20449;-70
2022/02/16 11:17:51;;;;;;;1.10;1.00;;;12.60;99.90;;;;;;5073037;28;20441;-71
2022/02/16 11:20:20;;;;;;;1.00;1.00;;;12.50;99.90;;;;;;5073316;28;20467;-71
2022/02/16 11:22:55;;;;;;;1.40;1.30;;;12.50;99.90;;;;;;5073240;28;20915;-71
2022/02/16 11:25:31;;;;;;;1.17;1.03;;;12.50;99.90;;;;;;5073191;28;20519;-70
2022/02/16 11:28:00;;;;;;;1.07;1.07;;;12.60;99.90;;;;;;5073141;28;20488;-71
2022/02/16 11:30:32;;;;;;;1.83;1.00;;;12.50;99.90;;;;;;5073255;28;20867;-71
2022/02/16 11:33:18;;;;;;;1.37;1.10;;;12.50;99.90;;;;;;5073177;28;20429;-71
2022/02/16 11:35:47;;;;;;;1.27;1.17;;;12.50;99.90;;;;;;5072785;28;21005;-71
2022/02/16 11:38:17;;;;;;;1.20;1.10;;;12.50;99.90;;;;;;5073097;28;20449;-72
2022/02/16 11:40:47;;;;;;;2.43;1.40;;;12.50;99.90;;;;;;5073043;28;20448;-71
2022/02/16 11:43:16;;;;;;;1.80;1.47;;;12.50;99.90;;;;;;5073059;28;20528;-71
2022/02/16 11:45:58;;;;;;;1.20;1.20;;;12.60;99.90;;;;;;5075412;28;20468;-71
2022/02/16 11:48:48;;;;;;;1.70;1.60;;;12.60;99.90;;;;;;5076782;28;20514;-71
2022/02/16 11:51:38;;;;;;;2.77;1.50;;;12.70;99.90;;;;;;5076752;28;20467;-71
2022/02/16 11:54:44;;;;;;;1.50;1.33;;;12.80;99.90;;;;;;5076395;28;20547;-71
2022/02/16 11:57:44;;;;;;;1.53;1.30;;;12.80;99.90;;;;;;5076228;28;20994;-71
2022/02/16 12:00:27;;;;;;;2.23;1.30;;;12.80;99.90;;;;;;5076577;28;20429;-71
2022/02/16 12:03:25;;;;;;;1.63;1.00;;;12.90;99.90;;;;;;5076206;28;20903;-71
2022/02/16 12:05:58;;;;;;;1.30;1.20;;;13.00;99.90;;;;;;5076433;28;20469;-71
2022/02/16 12:08:27;;;;;;;1.30;1.20;;;12.90;99.90;;;;;;5075942;28;20487;-71
2022/02/16 12:10:55;;;;;;;1.47;1.20;;;13.00;99.90;;;;;;5076129;28;20497;-71
2022/02/16 12:13:28;;;;;;;1.50;1.13;;;13.00;99.90;;;;;;5076359;28;20448;-71
2022/02/16 12:15:57;;;;;;;1.37;0.90;;;13.20;99.90;;;;;;5076238;28;20460;-71
2022/02/16 12:18:25;;;;;;;1.60;1.50;;;13.20;99.90;;;;;;5076238;28;20437;-71
2022/02/16 12:20:52;;;;;;;1.20;1.10;;;13.30;99.90;;;;;;5076211;28;20484;-71
2022/02/16 12:23:20;;;;;;;1.60;1.00;;;13.30;99.90;;;;;;5075901;28;20445;-71
2022/02/16 12:26:01;;;;;;;0.70;0.70;;;13.40;99.90;;;;;;5076120;28;20475;-71
2022/02/16 12:28:29;;;;;;;1.00;1.00;;;13.40;99.90;;;;;;5076076;28;20476;-71
2022/02/16 12:30:55;;;;;;;1.20;0.90;;;13.50;99.90;;;;;;5076041;28;20452;-71
2022/02/16 12:33:25;;;;;;;1.70;1.23;;;13.60;99.90;;;;;;5075652;28;20943;-71
2022/02/16 12:35:52;;;;;;;0.93;0.83;;;13.70;99.90;;;;;;5075861;28;20559;-71
2022/02/16 12:38:23;;;;;;;3.07;1.23;;;13.90;99.90;;;;;;5075917;28;20449;-71
2022/02/16 12:40:50;;;;;;;1.80;0.93;;;14.10;99.90;;;;;;5075935;28;20812;-71
2022/02/16 12:43:17;;;;;;;2.23;0.90;;;14.10;99.90;;;;;;5075470;28;20931;-71
2022/02/16 12:45:47;;;;;;;2.77;0.97;;;14.10;99.90;;;;;;5075767;28;20460;-70
2022/02/16 12:48:16;;;;;;;2.80;1.00;;;14.00;99.90;;;;;;5075403;28;20441;-71
2022/02/16 12:50:42;;;;;;;2.13;0.80;;;14.10;99.90;;;;;;5075673;28;20441;-71
2022/02/16 12:53:10;;;;;;;1.47;0.90;;;14.20;99.90;;;;;;5075326;28;20448;-71